sensor_id;sensor_type;location;lat;lon;timestamp;P1;durP1;ratioP1;P2;durP2;ratioP2
33453;SDS011;39400;49.744;7.012;2022-10-19T00:01:03;54.00;;;29.38;;
33453;SDS011;39400;49.744;7.012;2022-10-19T00:03:34;58.22;;;29.33;;
33453;SDS011;39400;49.744;7.012;2022-10-19T00:06:15;56.17;;;28.60;;
33453;SDS011;39400;49.744;7.012;2022-10-19T00:08:43;57.45;;;27.98;;
33453;SDS011;39400;49.744;7.012;2022-10-19T00:11:10;47.50;;;26.10;;
33453;SDS011;39400;49.744;7.012;2022-10-19T00:13:38;59.47;;;27.50;;
33453;SDS011;39400;49.744;7.012;2022-10-19T00:16:10;50.30;;;26.38;;
33453;SDS011;39400;49.744;7.012;2022-10-19T00:18:39;52.85;;;28.20;;
33453;SDS011;39400;49.744;7.012;2022-10-19T00:21:09;64.72;;;28.00;;
33453;SDS011;39400;49.744;7.012;2022-10-19T00:23:39;58.08;;;27.48;;
33453;SDS011;39400;49.744;7.012;2022-10-19T00:26:06;53.47;;;26.73;;
33453;SDS011;39400;49.744;7.012;2022-10-19T00:28:34;76.60;;;29.48;;
33453;SDS011;39400;49.744;7.012;2022-10-19T00:31:03;60.90;;;27.17;;
33453;SDS011;39400;49.744;7.012;2022-10-19T00:33:31;70.80;;;25.42;;
33453;SDS011;39400;49.744;7.012;2022-10-19T00:35:58;56.30;;;26.17;;
33453;SDS011;39400;49.744;7.012;2022-10-19T00:38:25;115.32;;;26.63;;
33453;SDS011;39400;49.744;7.012;2022-10-19T00:40:53;106.50;;;26.30;;
33453;SDS011;39400;49.744;7.012;2022-10-19T00:43:21;89.35;;;25.42;;
33453;SDS011;39400;49.744;7.012;2022-10-19T00:45:50;134.00;;;25.65;;
33453;SDS011;39400;49.744;7.012;2022-10-19T00:48:25;95.50;;;26.02;;
33453;SDS011;39400;49.744;7.012;2022-10-19T00:50:56;163.47;;;27.10;;
33453;SDS011;39400;49.744;7.012;2022-10-19T00:53:26;218.18;;;29.42;;
33453;SDS011;39400;49.744;7.012;2022-10-19T00:55:56;62.15;;;20.65;;
33453;SDS011;39400;49.744;7.012;2022-10-19T00:58:27;173.57;;;28.23;;
33453;SDS011;39400;49.744;7.012;2022-10-19T01:00:54;80.95;;;23.67;;
33453;SDS011;39400;49.744;7.012;2022-10-19T01:03:23;86.25;;;24.98;;
33453;SDS011;39400;49.744;7.012;2022-10-19T01:05:50;245.48;;;28.02;;
33453;SDS011;39400;49.744;7.012;2022-10-19T01:08:18;163.02;;;26.00;;
33453;SDS011;39400;49.744;7.012;2022-10-19T01:22:19;285.67;;;28.13;;
33453;SDS011;39400;49.744;7.012;2022-10-19T01:27:43;222.70;;;26.00;;
33453;SDS011;39400;49.744;7.012;2022-10-19T01:43:52;100.13;;;16.00;;
33453;SDS011;39400;49.744;7.012;2022-10-19T01:46:37;141.73;;;17.77;;
33453;SDS011;39400;49.744;7.012;2022-10-19T01:49:07;77.35;;;16.33;;
33453;SDS011;39400;49.744;7.012;2022-10-19T01:51:42;47.60;;;16.15;;
33453;SDS011;39400;49.744;7.012;2022-10-19T01:54:18;31.33;;;13.95;;
33453;SDS011;39400;49.744;7.012;2022-10-19T01:56:48;72.35;;;16.08;;
33453;SDS011;39400;49.744;7.012;2022-10-19T01:59:17;48.28;;;12.63;;
33453;SDS011;39400;49.744;7.012;2022-10-19T02:01:47;38.85;;;13.15;;
33453;SDS011;39400;49.744;7.012;2022-10-19T02:04:17;211.27;;;17.55;;
33453;SDS011;39400;49.744;7.012;2022-10-19T02:06:47;21.27;;;11.20;;
33453;SDS011;39400;49.744;7.012;2022-10-19T02:09:15;21.73;;;13.43;;
33453;SDS011;39400;49.744;7.012;2022-10-19T02:11:44;20.30;;;11.05;;
33453;SDS011;39400;49.744;7.012;2022-10-19T02:14:18;23.58;;;13.07;;
33453;SDS011;39400;49.744;7.012;2022-10-19T02:16:54;19.45;;;12.07;;
33453;SDS011;39400;49.744;7.012;2022-10-19T02:19:27;23.00;;;13.40;;
33453;SDS011;39400;49.744;7.012;2022-10-19T02:21:55;25.17;;;15.07;;
33453;SDS011;39400;49.744;7.012;2022-10-19T02:24:22;27.10;;;13.77;;
33453;SDS011;39400;49.744;7.012;2022-10-19T02:26:49;26.45;;;14.73;;
33453;SDS011;39400;49.744;7.012;2022-10-19T02:29:17;30.08;;;15.45;;
33453;SDS011;39400;49.744;7.012;2022-10-19T02:31:44;24.75;;;13.48;;
33453;SDS011;39400;49.744;7.012;2022-10-19T02:34:11;25.45;;;15.32;;
33453;SDS011;39400;49.744;7.012;2022-10-19T02:36:39;26.92;;;16.50;;
33453;SDS011;39400;49.744;7.012;2022-10-19T02:39:06;26.15;;;13.98;;
33453;SDS011;39400;49.744;7.012;2022-10-19T02:41:44;23.73;;;14.32;;
33453;SDS011;39400;49.744;7.012;2022-10-19T02:47:24;24.35;;;14.85;;
33453;SDS011;39400;49.744;7.012;2022-10-19T02:49:54;22.90;;;14.23;;
33453;SDS011;39400;49.744;7.012;2022-10-19T02:52:21;25.48;;;13.50;;
33453;SDS011;39400;49.744;7.012;2022-10-19T02:54:48;29.77;;;16.27;;
33453;SDS011;39400;49.744;7.012;2022-10-19T02:59:47;25.88;;;14.98;;
33453;SDS011;39400;49.744;7.012;2022-10-19T03:02:14;23.85;;;12.88;;
33453;SDS011;39400;49.744;7.012;2022-10-19T03:04:42;23.00;;;14.50;;
33453;SDS011;39400;49.744;7.012;2022-10-19T03:07:18;29.67;;;17.65;;
33453;SDS011;39400;49.744;7.012;2022-10-19T03:09:47;21.13;;;13.18;;
33453;SDS011;39400;49.744;7.012;2022-10-19T03:12:14;20.55;;;12.88;;
33453;SDS011;39400;49.744;7.012;2022-10-19T03:14:42;20.60;;;11.73;;
33453;SDS011;39400;49.744;7.012;2022-10-19T03:17:09;23.80;;;13.18;;
33453;SDS011;39400;49.744;7.012;2022-10-19T03:19:37;18.95;;;11.50;;
33453;SDS011;39400;49.744;7.012;2022-10-19T03:22:04;23.20;;;14.63;;
33453;SDS011;39400;49.744;7.012;2022-10-19T03:24:31;17.02;;;11.23;;
33453;SDS011;39400;49.744;7.012;2022-10-19T03:26:58;20.98;;;13.13;;
33453;SDS011;39400;49.744;7.012;2022-10-19T03:29:26;19.98;;;11.35;;
33453;SDS011;39400;49.744;7.012;2022-10-19T03:31:53;21.77;;;12.50;;
33453;SDS011;39400;49.744;7.012;2022-10-19T03:34:20;21.58;;;12.20;;
33453;SDS011;39400;49.744;7.012;2022-10-19T03:36:47;21.45;;;12.15;;
33453;SDS011;39400;49.744;7.012;2022-10-19T03:39:14;21.23;;;12.70;;
33453;SDS011;39400;49.744;7.012;2022-10-19T03:41:42;22.27;;;13.07;;
33453;SDS011;39400;49.744;7.012;2022-10-19T03:44:09;18.38;;;11.55;;
33453;SDS011;39400;49.744;7.012;2022-10-19T03:46:37;19.83;;;12.05;;
33453;SDS011;39400;49.744;7.012;2022-10-19T03:49:05;21.80;;;11.82;;
33453;SDS011;39400;49.744;7.012;2022-10-19T03:51:32;21.75;;;13.77;;
33453;SDS011;39400;49.744;7.012;2022-10-19T03:54:05;21.30;;;11.10;;
33453;SDS011;39400;49.744;7.012;2022-10-19T03:56:34;22.35;;;12.48;;
33453;SDS011;39400;49.744;7.012;2022-10-19T03:59:02;28.77;;;14.35;;
33453;SDS011;39400;49.744;7.012;2022-10-19T04:01:34;21.67;;;13.52;;
33453;SDS011;39400;49.744;7.012;2022-10-19T04:04:04;22.65;;;13.50;;
33453;SDS011;39400;49.744;7.012;2022-10-19T04:06:34;27.08;;;15.63;;
33453;SDS011;39400;49.744;7.012;2022-10-19T04:09:06;27.38;;;13.57;;
33453;SDS011;39400;49.744;7.012;2022-10-19T04:11:34;27.80;;;13.98;;
33453;SDS011;39400;49.744;7.012;2022-10-19T04:14:02;25.20;;;13.88;;
33453;SDS011;39400;49.744;7.012;2022-10-19T04:16:30;26.55;;;14.88;;
33453;SDS011;39400;49.744;7.012;2022-10-19T04:18:58;26.02;;;13.93;;
33453;SDS011;39400;49.744;7.012;2022-10-19T04:21:29;21.77;;;12.73;;
33453;SDS011;39400;49.744;7.012;2022-10-19T04:23:59;27.00;;;13.38;;
33453;SDS011;39400;49.744;7.012;2022-10-19T04:26:28;19.00;;;11.63;;
33453;SDS011;39400;49.744;7.012;2022-10-19T04:28:58;19.17;;;11.93;;
33453;SDS011;39400;49.744;7.012;2022-10-19T04:31:26;18.50;;;11.00;;
33453;SDS011;39400;49.744;7.012;2022-10-19T04:33:54;21.52;;;11.85;;
33453;SDS011;39400;49.744;7.012;2022-10-19T04:36:22;24.98;;;11.43;;
33453;SDS011;39400;49.744;7.012;2022-10-19T04:38:49;23.20;;;12.68;;
33453;SDS011;39400;49.744;7.012;2022-10-19T04:41:19;20.08;;;11.80;;
33453;SDS011;39400;49.744;7.012;2022-10-19T04:43:47;22.08;;;13.07;;
33453;SDS011;39400;49.744;7.012;2022-10-19T04:46:16;20.03;;;11.63;;
33453;SDS011;39400;49.744;7.012;2022-10-19T04:48:45;19.35;;;9.60;;
33453;SDS011;39400;49.744;7.012;2022-10-19T04:51:13;20.87;;;11.50;;
33453;SDS011;39400;49.744;7.012;2022-10-19T04:53:42;18.70;;;10.40;;
33453;SDS011;39400;49.744;7.012;2022-10-19T04:56:11;16.02;;;9.27;;
33453;SDS011;39400;49.744;7.012;2022-10-19T04:58:40;19.80;;;9.95;;
33453;SDS011;39400;49.744;7.012;2022-10-19T05:01:11;18.33;;;11.30;;
33453;SDS011;39400;49.744;7.012;2022-10-19T05:03:39;23.50;;;12.18;;
33453;SDS011;39400;49.744;7.012;2022-10-19T05:06:06;16.58;;;10.35;;
33453;SDS011;39400;49.744;7.012;2022-10-19T05:08:35;22.20;;;11.35;;
33453;SDS011;39400;49.744;7.012;2022-10-19T05:11:07;21.40;;;12.60;;
33453;SDS011;39400;49.744;7.012;2022-10-19T05:13:36;22.88;;;12.25;;
33453;SDS011;39400;49.744;7.012;2022-10-19T05:16:04;20.15;;;10.45;;
33453;SDS011;39400;49.744;7.012;2022-10-19T05:23:35;24.02;;;11.93;;
33453;SDS011;39400;49.744;7.012;2022-10-19T05:26:03;20.65;;;12.85;;
33453;SDS011;39400;49.744;7.012;2022-10-19T05:28:32;25.88;;;13.45;;
33453;SDS011;39400;49.744;7.012;2022-10-19T05:31:04;23.58;;;11.82;;
33453;SDS011;39400;49.744;7.012;2022-10-19T05:33:35;17.05;;;10.52;;
33453;SDS011;39400;49.744;7.012;2022-10-19T05:36:23;24.95;;;11.40;;
33453;SDS011;39400;49.744;7.012;2022-10-19T05:39:12;26.50;;;10.68;;
33453;SDS011;39400;49.744;7.012;2022-10-19T05:41:43;21.60;;;11.65;;
33453;SDS011;39400;49.744;7.012;2022-10-19T05:44:13;19.23;;;10.40;;
33453;SDS011;39400;49.744;7.012;2022-10-19T05:46:45;22.25;;;11.73;;
33453;SDS011;39400;49.744;7.012;2022-10-19T05:49:13;23.08;;;13.30;;
33453;SDS011;39400;49.744;7.012;2022-10-19T05:51:41;19.40;;;11.40;;
33453;SDS011;39400;49.744;7.012;2022-10-19T05:54:09;19.30;;;11.65;;
33453;SDS011;39400;49.744;7.012;2022-10-19T05:56:38;26.67;;;14.38;;
33453;SDS011;39400;49.744;7.012;2022-10-19T05:59:06;22.27;;;10.75;;
33453;SDS011;39400;49.744;7.012;2022-10-19T06:01:34;23.58;;;13.30;;
33453;SDS011;39400;49.744;7.012;2022-10-19T06:04:02;25.83;;;14.32;;
33453;SDS011;39400;49.744;7.012;2022-10-19T06:06:30;21.15;;;12.18;;
33453;SDS011;39400;49.744;7.012;2022-10-19T06:08:57;29.45;;;15.13;;
33453;SDS011;39400;49.744;7.012;2022-10-19T06:11:28;31.20;;;14.40;;
33453;SDS011;39400;49.744;7.012;2022-10-19T06:13:57;27.88;;;14.32;;
33453;SDS011;39400;49.744;7.012;2022-10-19T06:16:25;23.60;;;12.95;;
33453;SDS011;39400;49.744;7.012;2022-10-19T06:18:53;24.17;;;13.23;;
33453;SDS011;39400;49.744;7.012;2022-10-19T06:21:21;22.27;;;12.13;;
33453;SDS011;39400;49.744;7.012;2022-10-19T06:23:51;19.35;;;11.75;;
33453;SDS011;39400;49.744;7.012;2022-10-19T06:26:29;19.48;;;11.55;;
33453;SDS011;39400;49.744;7.012;2022-10-19T06:28:58;24.55;;;13.50;;
33453;SDS011;39400;49.744;7.012;2022-10-19T06:31:26;24.52;;;13.95;;
33453;SDS011;39400;49.744;7.012;2022-10-19T06:33:54;20.65;;;13.00;;
33453;SDS011;39400;49.744;7.012;2022-10-19T06:36:23;32.35;;;13.05;;
33453;SDS011;39400;49.744;7.012;2022-10-19T06:41:18;24.67;;;12.75;;
33453;SDS011;39400;49.744;7.012;2022-10-19T06:43:49;27.85;;;15.00;;
33453;SDS011;39400;49.744;7.012;2022-10-19T06:46:18;24.02;;;12.00;;
33453;SDS011;39400;49.744;7.012;2022-10-19T06:48:49;19.92;;;11.25;;
33453;SDS011;39400;49.744;7.012;2022-10-19T06:51:20;16.98;;;10.45;;
33453;SDS011;39400;49.744;7.012;2022-10-19T06:53:48;22.10;;;11.75;;
33453;SDS011;39400;49.744;7.012;2022-10-19T06:56:21;24.23;;;13.05;;
33453;SDS011;39400;49.744;7.012;2022-10-19T06:58:50;27.97;;;12.50;;
33453;SDS011;39400;49.744;7.012;2022-10-19T07:01:17;17.92;;;9.48;;
33453;SDS011;39400;49.744;7.012;2022-10-19T07:03:45;19.55;;;9.40;;
33453;SDS011;39400;49.744;7.012;2022-10-19T07:06:12;28.83;;;11.27;;
33453;SDS011;39400;49.744;7.012;2022-10-19T07:08:40;16.83;;;9.55;;
33453;SDS011;39400;49.744;7.012;2022-10-19T07:11:09;15.18;;;9.05;;
33453;SDS011;39400;49.744;7.012;2022-10-19T07:13:37;18.40;;;10.18;;
33453;SDS011;39400;49.744;7.012;2022-10-19T07:16:06;15.25;;;8.05;;
33453;SDS011;39400;49.744;7.012;2022-10-19T07:18:43;17.83;;;9.05;;
33453;SDS011;39400;49.744;7.012;2022-10-19T07:21:12;22.95;;;10.65;;
33453;SDS011;39400;49.744;7.012;2022-10-19T07:23:41;22.40;;;11.02;;
33453;SDS011;39400;49.744;7.012;2022-10-19T07:26:19;30.17;;;13.97;;
33453;SDS011;39400;49.744;7.012;2022-10-19T07:28:49;22.17;;;13.23;;
33453;SDS011;39400;49.744;7.012;2022-10-19T07:31:17;31.95;;;14.05;;
33453;SDS011;39400;49.744;7.012;2022-10-19T07:33:46;20.90;;;12.27;;
33453;SDS011;39400;49.744;7.012;2022-10-19T07:36:17;23.05;;;12.32;;
33453;SDS011;39400;49.744;7.012;2022-10-19T07:38:44;36.67;;;18.10;;
33453;SDS011;39400;49.744;7.012;2022-10-19T07:41:15;23.88;;;12.95;;
33453;SDS011;39400;49.744;7.012;2022-10-19T07:43:44;26.20;;;12.10;;
33453;SDS011;39400;49.744;7.012;2022-10-19T07:46:16;20.70;;;11.20;;
33453;SDS011;39400;49.744;7.012;2022-10-19T07:48:45;23.00;;;10.73;;
33453;SDS011;39400;49.744;7.012;2022-10-19T07:51:13;21.27;;;12.30;;
33453;SDS011;39400;49.744;7.012;2022-10-19T07:53:42;32.00;;;13.77;;
33453;SDS011;39400;49.744;7.012;2022-10-19T07:56:16;23.48;;;12.32;;
33453;SDS011;39400;49.744;7.012;2022-10-19T07:58:45;18.50;;;11.23;;
33453;SDS011;39400;49.744;7.012;2022-10-19T08:01:18;18.52;;;11.05;;
33453;SDS011;39400;49.744;7.012;2022-10-19T08:03:47;22.52;;;13.38;;
33453;SDS011;39400;49.744;7.012;2022-10-19T08:06:34;16.85;;;9.75;;
33453;SDS011;39400;49.744;7.012;2022-10-19T08:09:03;17.90;;;11.25;;
33453;SDS011;39400;49.744;7.012;2022-10-19T08:11:32;26.38;;;11.45;;
33453;SDS011;39400;49.744;7.012;2022-10-19T08:14:00;18.95;;;10.27;;
33453;SDS011;39400;49.744;7.012;2022-10-19T08:19:12;17.25;;;10.63;;
33453;SDS011;39400;49.744;7.012;2022-10-19T08:21:42;22.63;;;13.20;;
33453;SDS011;39400;49.744;7.012;2022-10-19T08:26:39;16.23;;;9.95;;
33453;SDS011;39400;49.744;7.012;2022-10-19T08:29:07;16.65;;;10.40;;
33453;SDS011;39400;49.744;7.012;2022-10-19T08:31:38;12.25;;;8.07;;
33453;SDS011;39400;49.744;7.012;2022-10-19T08:34:05;12.63;;;7.53;;
33453;SDS011;39400;49.744;7.012;2022-10-19T08:36:33;17.52;;;8.27;;
33453;SDS011;39400;49.744;7.012;2022-10-19T08:39:02;16.30;;;10.57;;
33453;SDS011;39400;49.744;7.012;2022-10-19T08:53:14;9.55;;;7.00;;
33453;SDS011;39400;49.744;7.012;2022-10-19T08:56:04;8.50;;;6.13;;
33453;SDS011;39400;49.744;7.012;2022-10-19T08:58:55;5.97;;;4.32;;
33453;SDS011;39400;49.744;7.012;2022-10-19T09:09:55;6.65;;;4.20;;
33453;SDS011;39400;49.744;7.012;2022-10-19T09:12:36;7.15;;;3.00;;
33453;SDS011;39400;49.744;7.012;2022-10-19T09:15:12;4.93;;;2.25;;
33453;SDS011;39400;49.744;7.012;2022-10-19T09:17:43;19.95;;;17.58;;
33453;SDS011;39400;49.744;7.012;2022-10-19T09:20:18;9.68;;;7.47;;
33453;SDS011;39400;49.744;7.012;2022-10-19T09:22:50;5.80;;;4.05;;
33453;SDS011;39400;49.744;7.012;2022-10-19T09:25:26;5.07;;;3.40;;
33453;SDS011;39400;49.744;7.012;2022-10-19T09:28:01;5.45;;;3.17;;
33453;SDS011;39400;49.744;7.012;2022-10-19T09:30:42;5.18;;;3.58;;
33453;SDS011;39400;49.744;7.012;2022-10-19T09:33:15;4.57;;;3.35;;
33453;SDS011;39400;49.744;7.012;2022-10-19T09:35:49;5.20;;;3.15;;
33453;SDS011;39400;49.744;7.012;2022-10-19T09:38:16;4.45;;;3.28;;
33453;SDS011;39400;49.744;7.012;2022-10-19T09:40:45;4.00;;;2.53;;
33453;SDS011;39400;49.744;7.012;2022-10-19T09:43:12;6.35;;;3.45;;
33453;SDS011;39400;49.744;7.012;2022-10-19T09:45:58;6.93;;;3.30;;
33453;SDS011;39400;49.744;7.012;2022-10-19T09:48:48;3.78;;;3.03;;
33453;SDS011;39400;49.744;7.012;2022-10-19T09:51:18;4.30;;;3.13;;
33453;SDS011;39400;49.744;7.012;2022-10-19T09:53:46;4.50;;;3.53;;
33453;SDS011;39400;49.744;7.012;2022-10-19T09:56:19;5.25;;;4.22;;
33453;SDS011;39400;49.744;7.012;2022-10-19T09:58:48;3.97;;;3.20;;
33453;SDS011;39400;49.744;7.012;2022-10-19T10:01:27;3.75;;;2.85;;
33453;SDS011;39400;49.744;7.012;2022-10-19T10:04:13;5.18;;;3.47;;
33453;SDS011;39400;49.744;7.012;2022-10-19T10:06:42;5.72;;;3.30;;
33453;SDS011;39400;49.744;7.012;2022-10-19T10:09:16;4.55;;;2.78;;
33453;SDS011;39400;49.744;7.012;2022-10-19T10:11:46;6.15;;;3.00;;
33453;SDS011;39400;49.744;7.012;2022-10-19T10:17:05;3.78;;;2.28;;
33453;SDS011;39400;49.744;7.012;2022-10-19T10:19:47;5.40;;;2.42;;
33453;SDS011;39400;49.744;7.012;2022-10-19T10:22:27;4.45;;;2.17;;
33453;SDS011;39400;49.744;7.012;2022-10-19T10:25:00;3.92;;;2.10;;
33453;SDS011;39400;49.744;7.012;2022-10-19T10:27:37;5.63;;;2.63;;
33453;SDS011;39400;49.744;7.012;2022-10-19T10:30:11;3.47;;;2.50;;
33453;SDS011;39400;49.744;7.012;2022-10-19T10:32:45;5.28;;;3.20;;
33453;SDS011;39400;49.744;7.012;2022-10-19T10:35:17;3.78;;;2.50;;
33453;SDS011;39400;49.744;7.012;2022-10-19T10:37:47;3.58;;;1.92;;
33453;SDS011;39400;49.744;7.012;2022-10-19T10:40:22;3.83;;;2.13;;
33453;SDS011;39400;49.744;7.012;2022-10-19T10:42:52;3.35;;;2.30;;
33453;SDS011;39400;49.744;7.012;2022-10-19T10:45:23;4.43;;;2.83;;
33453;SDS011;39400;49.744;7.012;2022-10-19T10:47:55;5.75;;;3.03;;
33453;SDS011;39400;49.744;7.012;2022-10-19T10:50:25;8.82;;;5.25;;
33453;SDS011;39400;49.744;7.012;2022-10-19T10:53:00;4.72;;;3.15;;
33453;SDS011;39400;49.744;7.012;2022-10-19T10:55:29;3.28;;;2.67;;
33453;SDS011;39400;49.744;7.012;2022-10-19T10:58:04;4.47;;;2.87;;
33453;SDS011;39400;49.744;7.012;2022-10-19T11:00:39;7.18;;;3.42;;
33453;SDS011;39400;49.744;7.012;2022-10-19T11:05:45;5.85;;;2.40;;
33453;SDS011;39400;49.744;7.012;2022-10-19T11:08:50;2.95;;;2.15;;
33453;SDS011;39400;49.744;7.012;2022-10-19T11:16:16;4.88;;;1.80;;
33453;SDS011;39400;49.744;7.012;2022-10-19T11:18:46;2.55;;;1.60;;
33453;SDS011;39400;49.744;7.012;2022-10-19T11:21:19;2.42;;;1.42;;
33453;SDS011;39400;49.744;7.012;2022-10-19T11:26:59;2.03;;;1.48;;
33453;SDS011;39400;49.744;7.012;2022-10-19T11:38:16;6.60;;;2.20;;
33453;SDS011;39400;49.744;7.012;2022-10-19T11:52:20;4.20;;;2.00;;
33453;SDS011;39400;49.744;7.012;2022-10-19T12:00:21;1.98;;;1.38;;
33453;SDS011;39400;49.744;7.012;2022-10-19T12:08:41;3.57;;;2.37;;
33453;SDS011;39400;49.744;7.012;2022-10-19T12:11:47;4.38;;;2.50;;
33453;SDS011;39400;49.744;7.012;2022-10-19T12:14:43;6.95;;;3.92;;
33453;SDS011;39400;49.744;7.012;2022-10-19T12:17:24;5.40;;;3.45;;
33453;SDS011;39400;49.744;7.012;2022-10-19T12:19:57;7.28;;;4.65;;
33453;SDS011;39400;49.744;7.012;2022-10-19T12:22:28;7.05;;;2.65;;
33453;SDS011;39400;49.744;7.012;2022-10-19T12:24:57;4.07;;;2.78;;
33453;SDS011;39400;49.744;7.012;2022-10-19T12:27:29;9.05;;;4.57;;
33453;SDS011;39400;49.744;7.012;2022-10-19T12:30:13;7.63;;;4.10;;
33453;SDS011;39400;49.744;7.012;2022-10-19T12:33:15;6.93;;;3.70;;
33453;SDS011;39400;49.744;7.012;2022-10-19T12:35:49;8.00;;;4.47;;
33453;SDS011;39400;49.744;7.012;2022-10-19T12:38:28;17.33;;;6.22;;
33453;SDS011;39400;49.744;7.012;2022-10-19T12:41:29;5.80;;;3.53;;
33453;SDS011;39400;49.744;7.012;2022-10-19T12:44:07;6.47;;;3.95;;
33453;SDS011;39400;49.744;7.012;2022-10-19T12:46:59;7.85;;;4.32;;
33453;SDS011;39400;49.744;7.012;2022-10-19T12:49:43;4.40;;;3.40;;
33453;SDS011;39400;49.744;7.012;2022-10-19T12:52:12;6.03;;;3.65;;
33453;SDS011;39400;49.744;7.012;2022-10-19T12:54:40;4.93;;;3.50;;
33453;SDS011;39400;49.744;7.012;2022-10-19T12:57:28;11.52;;;5.03;;
33453;SDS011;39400;49.744;7.012;2022-10-19T12:59:57;7.90;;;5.28;;
33453;SDS011;39400;49.744;7.012;2022-10-19T13:02:28;4.82;;;3.92;;
33453;SDS011;39400;49.744;7.012;2022-10-19T13:05:04;5.72;;;4.15;;
33453;SDS011;39400;49.744;7.012;2022-10-19T13:07:32;6.35;;;3.90;;
33453;SDS011;39400;49.744;7.012;2022-10-19T13:10:03;4.95;;;3.38;;
33453;SDS011;39400;49.744;7.012;2022-10-19T13:12:43;12.40;;;6.30;;
33453;SDS011;39400;49.744;7.012;2022-10-19T13:18:08;8.68;;;4.00;;
33453;SDS011;39400;49.744;7.012;2022-10-19T13:25:36;7.18;;;4.40;;
33453;SDS011;39400;49.744;7.012;2022-10-19T13:38:26;4.50;;;3.50;;
33453;SDS011;39400;49.744;7.012;2022-10-19T13:40:57;8.18;;;3.80;;
33453;SDS011;39400;49.744;7.012;2022-10-19T13:52:20;4.90;;;3.85;;
33453;SDS011;39400;49.744;7.012;2022-10-19T13:55:11;4.97;;;3.95;;
33453;SDS011;39400;49.744;7.012;2022-10-19T13:58:08;6.07;;;3.47;;
33453;SDS011;39400;49.744;7.012;2022-10-19T14:01:02;7.47;;;4.57;;
33453;SDS011;39400;49.744;7.012;2022-10-19T14:12:21;7.32;;;4.60;;
33453;SDS011;39400;49.744;7.012;2022-10-19T14:17:28;7.22;;;4.57;;
33453;SDS011;39400;49.744;7.012;2022-10-19T14:20:00;6.68;;;5.30;;
33453;SDS011;39400;49.744;7.012;2022-10-19T14:22:32;7.88;;;4.57;;
33453;SDS011;39400;49.744;7.012;2022-10-19T14:30:23;5.20;;;4.30;;
33453;SDS011;39400;49.744;7.012;2022-10-19T14:35:30;9.60;;;6.05;;
33453;SDS011;39400;49.744;7.012;2022-10-19T14:38:00;14.52;;;10.80;;
33453;SDS011;39400;49.744;7.012;2022-10-19T14:40:31;11.55;;;7.97;;
33453;SDS011;39400;49.744;7.012;2022-10-19T14:43:00;10.52;;;7.65;;
33453;SDS011;39400;49.744;7.012;2022-10-19T14:45:28;11.85;;;7.88;;
33453;SDS011;39400;49.744;7.012;2022-10-19T14:48:01;10.52;;;7.90;;
33453;SDS011;39400;49.744;7.012;2022-10-19T14:55:47;10.98;;;7.50;;
33453;SDS011;39400;49.744;7.012;2022-10-19T14:58:18;10.18;;;6.50;;
33453;SDS011;39400;49.744;7.012;2022-10-19T15:00:48;12.68;;;8.52;;
33453;SDS011;39400;49.744;7.012;2022-10-19T15:03:21;11.52;;;8.32;;
33453;SDS011;39400;49.744;7.012;2022-10-19T15:05:53;11.00;;;7.13;;
33453;SDS011;39400;49.744;7.012;2022-10-19T15:08:34;9.82;;;7.03;;
33453;SDS011;39400;49.744;7.012;2022-10-19T15:11:06;11.75;;;8.10;;
33453;SDS011;39400;49.744;7.012;2022-10-19T15:13:44;11.65;;;7.32;;
33453;SDS011;39400;49.744;7.012;2022-10-19T15:19:01;12.18;;;8.23;;
33453;SDS011;39400;49.744;7.012;2022-10-19T15:21:30;10.05;;;7.47;;
33453;SDS011;39400;49.744;7.012;2022-10-19T15:24:22;9.60;;;7.55;;
33453;SDS011;39400;49.744;7.012;2022-10-19T15:26:50;11.30;;;7.85;;
33453;SDS011;39400;49.744;7.012;2022-10-19T15:29:34;12.55;;;8.68;;
33453;SDS011;39400;49.744;7.012;2022-10-19T15:32:11;10.00;;;7.60;;
33453;SDS011;39400;49.744;7.012;2022-10-19T15:34:46;13.50;;;7.93;;
33453;SDS011;39400;49.744;7.012;2022-10-19T15:37:15;13.38;;;9.13;;
33453;SDS011;39400;49.744;7.012;2022-10-19T15:39:46;10.80;;;7.93;;
33453;SDS011;39400;49.744;7.012;2022-10-19T15:42:21;24.45;;;9.90;;
33453;SDS011;39400;49.744;7.012;2022-10-19T15:44:49;12.68;;;7.88;;
33453;SDS011;39400;49.744;7.012;2022-10-19T15:47:18;13.63;;;9.00;;
33453;SDS011;39400;49.744;7.012;2022-10-19T15:49:55;13.95;;;8.98;;
33453;SDS011;39400;49.744;7.012;2022-10-19T15:52:27;12.57;;;9.23;;
33453;SDS011;39400;49.744;7.012;2022-10-19T15:54:57;12.15;;;9.43;;
33453;SDS011;39400;49.744;7.012;2022-10-19T15:59:55;16.92;;;10.68;;
33453;SDS011;39400;49.744;7.012;2022-10-19T16:02:23;13.05;;;8.88;;
33453;SDS011;39400;49.744;7.012;2022-10-19T16:04:51;14.43;;;10.60;;
33453;SDS011;39400;49.744;7.012;2022-10-19T16:07:23;13.33;;;10.00;;
33453;SDS011;39400;49.744;7.012;2022-10-19T16:09:56;11.00;;;8.38;;
33453;SDS011;39400;49.744;7.012;2022-10-19T16:12:23;14.85;;;10.07;;
33453;SDS011;39400;49.744;7.012;2022-10-19T16:14:52;14.00;;;8.63;;
33453;SDS011;39400;49.744;7.012;2022-10-19T16:17:20;14.05;;;8.70;;
33453;SDS011;39400;49.744;7.012;2022-10-19T16:19:48;14.90;;;9.65;;
33453;SDS011;39400;49.744;7.012;2022-10-19T16:22:15;11.98;;;8.45;;
33453;SDS011;39400;49.744;7.012;2022-10-19T16:24:42;13.02;;;10.45;;
33453;SDS011;39400;49.744;7.012;2022-10-19T16:27:09;16.08;;;9.93;;
33453;SDS011;39400;49.744;7.012;2022-10-19T16:29:41;12.05;;;9.18;;
33453;SDS011;39400;49.744;7.012;2022-10-19T16:32:09;14.38;;;9.48;;
33453;SDS011;39400;49.744;7.012;2022-10-19T16:34:36;12.57;;;8.13;;
33453;SDS011;39400;49.744;7.012;2022-10-19T16:37:03;13.07;;;9.15;;
33453;SDS011;39400;49.744;7.012;2022-10-19T16:39:33;13.75;;;8.73;;
33453;SDS011;39400;49.744;7.012;2022-10-19T16:42:00;13.02;;;9.90;;
33453;SDS011;39400;49.744;7.012;2022-10-19T16:44:27;16.88;;;9.10;;
33453;SDS011;39400;49.744;7.012;2022-10-19T16:46:55;12.23;;;8.60;;
33453;SDS011;39400;49.744;7.012;2022-10-19T16:49:23;12.02;;;9.02;;
33453;SDS011;39400;49.744;7.012;2022-10-19T16:51:50;12.43;;;9.05;;
33453;SDS011;39400;49.744;7.012;2022-10-19T16:54:23;10.63;;;7.78;;
33453;SDS011;39400;49.744;7.012;2022-10-19T16:56:52;10.55;;;7.45;;
33453;SDS011;39400;49.744;7.012;2022-10-19T16:59:21;13.48;;;9.70;;
33453;SDS011;39400;49.744;7.012;2022-10-19T17:01:48;13.77;;;8.65;;
33453;SDS011;39400;49.744;7.012;2022-10-19T17:04:16;13.07;;;9.75;;
33453;SDS011;39400;49.744;7.012;2022-10-19T17:06:43;12.77;;;8.80;;
33453;SDS011;39400;49.744;7.012;2022-10-19T17:09:11;11.23;;;8.73;;
33453;SDS011;39400;49.744;7.012;2022-10-19T17:11:58;14.25;;;9.18;;
33453;SDS011;39400;49.744;7.012;2022-10-19T17:14:25;9.48;;;7.55;;
33453;SDS011;39400;49.744;7.012;2022-10-19T17:16:52;12.63;;;9.23;;
33453;SDS011;39400;49.744;7.012;2022-10-19T17:19:19;14.68;;;9.30;;
33453;SDS011;39400;49.744;7.012;2022-10-19T17:21:47;12.18;;;8.55;;
33453;SDS011;39400;49.744;7.012;2022-10-19T17:24:16;14.95;;;9.55;;
33453;SDS011;39400;49.744;7.012;2022-10-19T17:26:48;10.32;;;7.50;;
33453;SDS011;39400;49.744;7.012;2022-10-19T17:31:45;14.38;;;8.45;;
33453;SDS011;39400;49.744;7.012;2022-10-19T17:34:12;11.25;;;7.70;;
33453;SDS011;39400;49.744;7.012;2022-10-19T17:36:41;15.73;;;9.32;;
33453;SDS011;39400;49.744;7.012;2022-10-19T17:39:15;10.80;;;8.05;;
33453;SDS011;39400;49.744;7.012;2022-10-19T17:41:44;10.48;;;7.82;;
33453;SDS011;39400;49.744;7.012;2022-10-19T17:44:13;9.98;;;7.63;;
33453;SDS011;39400;49.744;7.012;2022-10-19T17:46:41;9.75;;;7.35;;